Time;durP1;ratioP1;P1;durP2;ratioP2;P2;SDS_P1;SDS_P2;PMS_P1;PMS_P2;Temp;Humidity;BMP_temperature;BMP_pressure;BME280_temperature;BME280_humidity;BME280_pressure;Samples;Min_cycle;Max_cycle;Signal;HPM_P1;HPM_P2
2022/12/24 00:01:22;;;;;;;25.85;6.65;;;10.60;99.90;;;;;;5129143;28;20115;-76
2022/12/24 00:03:48;;;;;;;21.90;6.60;;;10.60;99.90;;;;;;5129114;28;20019;-77
2022/12/24 00:06:20;;;;;;;30.63;8.07;;;10.60;99.90;;;;;;5129184;28;20094;-77
2022/12/24 00:08:46;;;;;;;21.60;7.35;;;10.60;99.90;;;;;;5091133;28;20066;-77
2022/12/24 00:11:12;;;;;;;13.55;5.15;;;10.50;99.90;;;;;;5108436;28;20020;-76
2022/12/24 00:13:38;;;;;;;17.55;6.20;;;10.50;99.90;;;;;;5116388;28;20126;-77
2022/12/24 00:16:05;;;;;;;18.85;6.32;;;10.50;99.90;;;;;;5110642;28;20038;-77
2022/12/24 00:18:31;;;;;;;20.58;7.43;;;10.50;99.90;;;;;;5110345;28;20036;-77
2022/12/24 00:20:57;;;;;;;20.98;8.35;;;10.50;99.90;;;;;;5129017;28;20073;-78
2022/12/24 00:23:23;;;;;;;23.15;6.05;;;10.40;99.90;;;;;;5110480;28;20392;-77
2022/12/24 00:25:49;;;;;;;23.40;6.47;;;10.40;99.90;;;;;;5110668;28;20030;-77
2022/12/24 00:28:16;;;;;;;15.50;5.35;;;10.40;99.90;;;;;;5106676;28;20065;-77
2022/12/24 00:30:42;;;;;;;12.77;5.32;;;10.30;99.90;;;;;;5107993;28;20028;-77
2022/12/24 00:33:08;;;;;;;27.92;7.63;;;10.20;99.90;;;;;;5106862;28;20028;-76
2022/12/24 00:35:35;;;;;;;13.13;4.65;;;10.30;99.90;;;;;;5108073;28;20036;-76
2022/12/24 00:38:02;;;;;;;29.27;8.23;;;10.30;99.90;;;;;;5107953;28;20028;-76
2022/12/24 00:40:29;;;;;;;21.65;5.15;;;10.30;99.90;;;;;;5107506;28;20020;-76
2022/12/24 00:42:55;;;;;;;17.83;6.80;;;10.20;99.90;;;;;;5108091;28;20032;-76
2022/12/24 00:45:21;;;;;;;28.30;7.28;;;10.20;99.90;;;;;;5107776;28;20044;-76
2022/12/24 00:47:47;;;;;;;18.30;6.38;;;10.20;99.90;;;;;;5106437;28;20021;-76
2022/12/24 00:50:13;;;;;;;12.52;4.70;;;10.20;99.90;;;;;;5106730;28;20040;-76
2022/12/24 00:52:39;;;;;;;25.88;6.65;;;10.20;99.90;;;;;;5106313;28;20099;-76
2022/12/24 00:55:06;;;;;;;18.40;6.10;;;10.20;99.90;;;;;;5106300;28;20028;-76
2022/12/24 00:57:32;;;;;;;22.50;5.47;;;10.20;99.90;;;;;;5092449;28;20035;-76
2022/12/24 00:59:58;;;;;;;21.02;8.45;;;10.30;99.90;;;;;;5109920;28;20028;-76
2022/12/24 01:02:24;;;;;;;21.70;7.80;;;10.20;99.90;;;;;;5109590;28;20051;-76
2022/12/24 01:07:36;;;;;;;11.77;7.25;;;10.20;99.90;;;;;;5121590;28;20032;-76
2022/12/24 01:10:02;;;;;;;17.50;6.10;;;10.20;99.90;;;;;;5089097;28;20043;-77
2022/12/24 01:12:28;;;;;;;30.33;7.28;;;10.10;99.90;;;;;;5127552;28;20050;-76
2022/12/24 01:14:54;;;;;;;23.42;5.57;;;10.10;99.90;;;;;;5109428;28;20039;-78
2022/12/24 01:17:20;;;;;;;26.13;6.68;;;10.10;99.90;;;;;;5127610;28;20130;-76
2022/12/24 01:19:46;;;;;;;21.58;6.68;;;10.10;99.90;;;;;;5109368;28;20097;-76
2022/12/24 01:22:11;;;;;;;18.60;6.68;;;10.10;99.90;;;;;;5127678;28;20032;-76
2022/12/24 01:24:40;;;;;;;10.25;4.22;;;10.10;99.90;;;;;;5127512;28;20020;-76
2022/12/24 01:27:05;;;;;;;23.38;5.72;;;10.00;99.90;;;;;;5105652;28;20042;-76
2022/12/24 01:29:31;;;;;;;20.63;6.32;;;10.10;99.90;;;;;;5106057;28;20031;-76
2022/12/24 01:31:57;;;;;;;18.58;5.25;;;10.10;99.90;;;;;;5106828;28;20039;-76
2022/12/24 01:34:23;;;;;;;26.65;5.72;;;10.10;99.90;;;;;;5088615;28;20096;-76
2022/12/24 01:36:49;;;;;;;11.10;5.50;;;10.20;99.90;;;;;;5105684;28;20039;-76
2022/12/24 01:39:15;;;;;;;19.33;7.63;;;10.20;99.90;;;;;;5105695;28;20024;-76
2022/12/24 01:44:30;;;;;;;47.35;8.55;;;10.30;99.90;;;;;;5108991;28;20051;-76
2022/12/24 01:47:17;;;;;;;21.55;4.97;;;10.30;99.90;;;;;;5109027;28;20024;-76
2022/12/24 01:49:57;;;;;;;26.50;6.25;;;10.30;99.90;;;;;;5127100;28;20035;-77
2022/12/24 01:52:32;;;;;;;15.00;5.82;;;10.30;99.90;;;;;;5108965;28;20024;-76
2022/12/24 01:55:03;;;;;;;19.25;6.97;;;10.30;99.90;;;;;;5091716;28;20035;-77
2022/12/24 01:57:36;;;;;;;13.75;5.88;;;10.40;99.90;;;;;;5108316;28;20023;-77
2022/12/24 02:00:07;;;;;;;15.65;7.93;;;10.40;99.90;;;;;;5091651;28;20030;-77
2022/12/24 02:02:33;;;;;;;17.30;7.78;;;10.40;99.90;;;;;;5126709;28;20019;-77
2022/12/24 02:05:25;;;;;;;12.80;5.53;;;10.40;99.90;;;;;;5126620;28;20533;-77
2022/12/24 02:07:51;;;;;;;17.92;5.80;;;10.40;99.90;;;;;;5103393;28;20132;-77
2022/12/24 02:10:18;;;;;;;13.05;5.45;;;10.50;99.90;;;;;;5106432;28;20029;-77
2022/12/24 02:12:44;;;;;;;25.73;6.82;;;10.50;99.90;;;;;;5106556;28;20047;-77
2022/12/24 02:15:17;;;;;;;13.75;5.78;;;10.50;99.90;;;;;;5083038;28;20038;-77
2022/12/24 02:17:51;;;;;;;18.63;6.82;;;10.50;99.90;;;;;;5107956;28;20032;-77
2022/12/24 02:20:20;;;;;;;13.02;5.55;;;10.50;99.90;;;;;;5108670;28;20066;-77
2022/12/24 02:22:57;;;;;;;13.95;4.70;;;10.50;99.90;;;;;;5108576;28;20030;-77
2022/12/24 02:25:47;;;;;;;10.82;5.00;;;10.60;99.90;;;;;;5126576;28;20057;-77
2022/12/24 02:28:32;;;;;;;;;;;10.60;99.90;;;;;;5109100;28;20024;-77
2022/12/24 02:31:42;;;;;;;18.38;5.30;;;10.50;99.90;;;;;;5125491;28;19907;-76
2022/12/24 02:34:15;;;;;;;10.73;5.32;;;10.60;99.90;;;;;;5080991;28;20036;-77
2022/12/24 02:37:05;;;;;;;22.85;6.53;;;10.50;99.90;;;;;;5051319;28;20055;-77
2022/12/24 02:39:40;;;;;;;;;;;10.50;99.90;;;;;;5086272;28;20029;-77
2022/12/24 02:42:10;;;;;;;22.15;5.10;;;10.50;99.90;;;;;;5067925;28;19913;-76
2022/12/24 02:45:08;;;;;;;18.13;5.45;;;10.50;99.90;;;;;;5079846;28;20024;-77
2022/12/24 02:47:35;;;;;;;5.80;3.13;;;10.50;99.90;;;;;;5086326;28;20039;-76
2022/12/24 02:50:02;;;;;;;15.02;6.80;;;10.50;99.90;;;;;;5087806;28;20031;-77
2022/12/24 02:52:27;;;;;;;8.60;3.80;;;10.50;99.90;;;;;;5105817;28;20081;-77
2022/12/24 02:54:55;;;;;;;6.57;2.83;;;10.50;99.90;;;;;;5106079;28;20032;-77
2022/12/24 02:57:42;;;;;;;9.68;5.28;;;10.50;99.90;;;;;;5087668;28;20016;-77
2022/12/24 03:00:12;;;;;;;13.02;3.70;;;10.50;99.90;;;;;;5105958;28;20025;-77
2022/12/24 03:02:41;;;;;;;;;;;10.50;99.90;;;;;;5106240;28;20046;-77
2022/12/24 03:05:18;;;;;;;9.23;3.28;;;10.50;99.90;;;;;;5087791;28;19908;-76
2022/12/24 03:08:09;;;;;;;11.80;4.35;;;10.40;99.90;;;;;;5087425;28;20400;-77
2022/12/24 03:10:45;;;;;;;7.72;5.10;;;10.40;99.90;;;;;;5105323;28;20028;-77
2022/12/24 03:13:19;;;;;;;6.82;3.35;;;10.40;99.90;;;;;;5084553;28;20024;-77
2022/12/24 03:15:46;;;;;;;21.73;4.18;;;10.40;99.90;;;;;;5109224;28;20059;-77
2022/12/24 03:18:16;;;;;;;13.18;4.03;;;10.30;99.90;;;;;;5109551;28;20029;-77
2022/12/24 03:20:47;;;;;;;21.30;5.78;;;10.30;99.90;;;;;;5074918;28;20016;-77
2022/12/24 03:23:13;;;;;;;9.10;5.22;;;10.30;99.90;;;;;;5074708;28;20442;-77
2022/12/24 03:25:42;;;;;;;13.50;4.15;;;10.30;99.90;;;;;;5109364;28;20059;-77
2022/12/24 03:28:10;;;;;;;10.63;4.70;;;10.30;99.90;;;;;;5091327;28;20060;-77
2022/12/24 03:30:40;;;;;;;12.32;4.13;;;10.30;99.90;;;;;;5109108;28;20072;-77
2022/12/24 03:33:05;;;;;;;8.43;3.78;;;10.30;99.90;;;;;;5109225;28;20106;-77
2022/12/24 03:35:32;;;;;;;18.77;6.18;;;10.30;99.90;;;;;;5090766;28;20055;-77
2022/12/24 03:37:57;;;;;;;17.50;4.20;;;10.30;99.90;;;;;;5109422;28;20021;-77
2022/12/24 03:40:23;;;;;;;12.65;4.85;;;10.20;99.90;;;;;;5074197;28;20123;-77
2022/12/24 03:42:49;;;;;;;8.13;3.70;;;10.20;99.90;;;;;;5090978;28;20028;-77
2022/12/24 03:45:15;;;;;;;18.73;4.80;;;10.20;99.90;;;;;;5090869;28;20024;-77
2022/12/24 03:47:41;;;;;;;25.65;7.05;;;10.20;99.90;;;;;;5108783;28;20036;-77
2022/12/24 03:50:07;;;;;;;11.80;4.50;;;10.20;99.90;;;;;;5109002;28;20032;-78
2022/12/24 03:52:33;;;;;;;13.30;6.10;;;10.20;99.90;;;;;;5108931;28;20016;-77
2022/12/24 03:54:59;;;;;;;10.70;3.55;;;10.20;99.90;;;;;;5090669;28;20047;-77
2022/12/24 03:57:25;;;;;;;10.85;4.28;;;10.20;99.90;;;;;;5091121;28;20066;-77
2022/12/24 03:59:51;;;;;;;11.10;4.65;;;10.20;99.90;;;;;;5073767;28;20027;-77
2022/12/24 04:02:17;;;;;;;8.50;5.43;;;10.20;99.90;;;;;;5090248;28;20035;-77
2022/12/24 04:04:43;;;;;;;40.30;5.68;;;10.10;99.90;;;;;;5090849;28;20028;-77
2022/12/24 04:07:09;;;;;;;14.63;4.15;;;10.10;99.90;;;;;;5108676;28;20101;-77
2022/12/24 04:09:35;;;;;;;16.83;4.90;;;10.00;99.90;;;;;;5108691;28;20484;-77
2022/12/24 04:12:01;;;;;;;19.73;6.35;;;10.00;99.90;;;;;;5090593;28;20038;-77
2022/12/24 04:14:28;;;;;;;16.05;4.45;;;9.90;99.90;;;;;;5086862;28;20036;-77
2022/12/24 04:16:53;;;;;;;16.92;6.32;;;9.90;99.90;;;;;;5087833;28;20050;-77
2022/12/24 04:19:19;;;;;;;24.20;5.70;;;9.90;99.90;;;;;;5087039;28;20024;-77
2022/12/24 04:21:45;;;;;;;8.13;5.20;;;10.00;99.90;;;;;;5086946;28;20107;-77
2022/12/24 04:24:11;;;;;;;15.13;6.50;;;10.00;99.90;;;;;;5086634;28;20086;-77
2022/12/24 04:26:38;;;;;;;19.80;6.80;;;10.10;99.90;;;;;;5086951;28;20489;-77
2022/12/24 04:29:03;;;;;;;17.85;6.00;;;10.10;99.90;;;;;;5086691;28;20040;-76
2022/12/24 04:31:29;;;;;;;19.70;5.30;;;10.20;99.90;;;;;;5086541;28;20069;-76
2022/12/24 04:33:55;;;;;;;19.15;5.53;;;10.20;99.90;;;;;;5087410;28;20028;-77
2022/12/24 04:36:21;;;;;;;17.65;4.95;;;10.20;99.90;;;;;;5086562;28;20040;-77
2022/12/24 04:38:48;;;;;;;22.77;5.15;;;10.30;99.90;;;;;;5087906;28;20025;-77
2022/12/24 04:41:17;;;;;;;15.07;6.68;;;10.30;99.90;;;;;;5088002;28;20055;-77
2022/12/24 04:43:43;;;;;;;23.23;6.03;;;10.30;99.90;;;;;;5087512;28;20039;-77
2022/12/24 04:46:13;;;;;;;18.83;6.70;;;10.20;99.90;;;;;;5087536;28;20063;-77
2022/12/24 04:48:39;;;;;;;;;;;10.10;99.90;;;;;;5087783;28;20029;-77
2022/12/24 04:51:07;;;;;;;12.65;6.18;;;10.00;99.90;;;;;;5086280;28;19912;-77
2022/12/24 04:53:33;;;;;;;9.25;4.10;;;10.00;99.90;;;;;;5086029;28;20033;-76
2022/12/24 04:56:00;;;;;;;13.57;5.00;;;10.00;99.90;;;;;;5087461;28;20025;-77
2022/12/24 04:58:26;;;;;;;10.52;4.97;;;10.00;99.90;;;;;;5086191;28;20024;-77
2022/12/24 05:00:52;;;;;;;11.98;5.65;;;10.00;99.90;;;;;;5069326;28;20033;-77
2022/12/24 05:03:18;;;;;;;8.30;5.78;;;10.00;99.90;;;;;;5087008;28;20534;-77
2022/12/24 05:05:44;;;;;;;21.02;5.95;;;9.90;99.90;;;;;;5087229;28;20032;-77
2022/12/24 05:08:10;;;;;;;9.45;3.65;;;10.10;99.90;;;;;;5087101;28;20454;-77
2022/12/24 05:10:36;;;;;;;11.68;5.53;;;10.00;99.90;;;;;;5087184;28;20032;-76
2022/12/24 05:13:02;;;;;;;11.80;5.65;;;10.00;99.90;;;;;;5085685;28;20041;-77
2022/12/24 05:15:28;;;;;;;14.18;5.82;;;10.00;99.90;;;;;;5102529;28;20040;-76
2022/12/24 05:17:54;;;;;;;12.48;4.28;;;10.00;99.90;;;;;;5085531;28;20042;-77
2022/12/24 05:20:20;;;;;;;16.60;5.78;;;9.90;99.90;;;;;;5085747;28;20123;-77
2022/12/24 05:28:21;;;;;;;20.17;5.20;;;9.90;99.90;;;;;;5085492;28;20032;-77
2022/12/24 05:30:47;;;;;;;12.57;4.32;;;9.90;99.90;;;;;;5085584;28;20052;-76
2022/12/24 05:33:13;;;;;;;29.42;6.38;;;9.90;99.90;;;;;;5086707;28;20052;-77
2022/12/24 05:35:40;;;;;;;15.38;6.70;;;9.90;99.90;;;;;;5096508;28;20031;-76
2022/12/24 05:38:05;;;;;;;9.27;4.57;;;9.90;99.90;;;;;;5100018;28;20020;-77
2022/12/24 05:40:31;;;;;;;16.23;6.68;;;10.00;99.90;;;;;;5089825;28;20040;-76
2022/12/24 05:42:57;;;;;;;13.88;5.45;;;10.00;99.90;;;;;;5106791;28;20028;-77
2022/12/24 05:45:23;;;;;;;12.63;4.40;;;10.00;99.90;;;;;;5106119;28;20027;-76
2022/12/24 05:47:49;;;;;;;29.40;7.28;;;10.00;99.90;;;;;;5106755;28;20035;-76
2022/12/24 05:50:15;;;;;;;15.65;4.45;;;10.10;99.90;;;;;;5106824;28;20093;-77
2022/12/24 05:52:41;;;;;;;24.33;4.95;;;10.00;99.90;;;;;;5105490;28;20040;-77
2022/12/24 05:55:08;;;;;;;16.75;5.47;;;9.90;99.90;;;;;;5102969;28;20031;-76
2022/12/24 05:57:33;;;;;;;11.63;5.28;;;10.00;99.90;;;;;;5084971;28;20099;-77
2022/12/24 05:59:59;;;;;;;16.20;7.65;;;10.00;99.90;;;;;;5086390;28;20385;-76
2022/12/24 06:02:25;;;;;;;18.60;6.70;;;10.00;99.90;;;;;;5086221;28;20037;-77
2022/12/24 06:04:51;;;;;;;20.98;6.57;;;10.00;99.90;;;;;;5086272;28;20044;-76
2022/12/24 06:07:17;;;;;;;34.30;8.60;;;9.90;99.90;;;;;;5068444;28;20070;-77
2022/12/24 06:09:42;;;;;;;25.20;8.10;;;9.90;99.90;;;;;;5085730;28;20054;-77
2022/12/24 06:12:08;;;;;;;44.13;8.73;;;10.00;99.90;;;;;;5085036;28;20032;-77
2022/12/24 06:14:34;;;;;;;12.32;5.82;;;10.00;99.90;;;;;;5097055;28;20501;-76
2022/12/24 06:17:00;;;;;;;17.38;6.28;;;10.00;99.90;;;;;;5088236;28;20020;-77
2022/12/24 06:19:26;;;;;;;30.63;7.40;;;10.00;99.90;;;;;;5102172;28;20067;-77
2022/12/24 06:21:52;;;;;;;18.73;5.43;;;10.10;99.90;;;;;;5085584;28;20013;-77
2022/12/24 06:24:18;;;;;;;15.82;5.45;;;10.20;99.90;;;;;;5080420;28;20055;-77
2022/12/24 06:26:44;;;;;;;15.25;6.70;;;10.20;99.90;;;;;;5047841;28;20166;-76
2022/12/24 06:29:10;;;;;;;15.68;5.75;;;10.20;99.90;;;;;;5094503;28;20051;-77
2022/12/24 06:31:36;;;;;;;16.23;6.20;;;10.30;99.90;;;;;;5088488;28;20086;-77
2022/12/24 06:34:02;;;;;;;11.77;6.95;;;10.30;99.90;;;;;;5087991;28;20040;-77
2022/12/24 06:36:28;;;;;;;15.95;3.95;;;10.30;99.90;;;;;;5081363;28;20538;-76
2022/12/24 06:38:54;;;;;;;16.08;8.43;;;10.40;99.90;;;;;;5093208;28;20032;-77
2022/12/24 06:41:20;;;;;;;10.32;5.28;;;10.40;99.90;;;;;;5105434;28;20020;-77
2022/12/24 06:43:48;;;;;;;17.15;5.55;;;10.40;99.90;;;;;;5085015;28;20107;-76
2022/12/24 06:46:15;;;;;;;17.08;6.47;;;10.40;99.90;;;;;;5101460;28;20111;-76
2022/12/24 06:48:45;;;;;;;17.77;5.68;;;10.40;99.90;;;;;;5077445;28;20545;-77
2022/12/24 06:51:13;;;;;;;16.33;5.35;;;10.40;99.90;;;;;;5095516;28;20523;-76
2022/12/24 06:53:39;;;;;;;25.92;6.68;;;10.40;99.90;;;;;;5106071;28;20042;-76
2022/12/24 06:56:07;;;;;;;27.13;7.00;;;10.50;99.90;;;;;;5105662;28;20074;-76
2022/12/24 06:58:33;;;;;;;16.05;7.47;;;10.40;99.90;;;;;;5112959;28;20026;-77
2022/12/24 07:01:08;;;;;;;25.90;7.03;;;10.40;99.90;;;;;;5098244;28;20053;-77
2022/12/24 07:03:34;;;;;;;27.27;6.85;;;10.40;99.90;;;;;;5111623;28;20036;-77
2022/12/24 07:06:00;;;;;;;17.95;5.65;;;10.40;99.90;;;;;;5115595;28;20035;-77
2022/12/24 07:08:26;;;;;;;15.35;5.63;;;10.40;99.90;;;;;;5091319;28;20024;-76
2022/12/24 07:10:53;;;;;;;19.48;5.47;;;10.30;99.90;;;;;;5091051;28;20023;-77
2022/12/24 07:13:19;;;;;;;18.90;6.72;;;10.30;99.90;;;;;;5071258;28;20094;-77
2022/12/24 07:15:45;;;;;;;16.38;7.55;;;10.30;99.90;;;;;;5070727;28;20044;-76
2022/12/24 07:18:11;;;;;;;25.00;10.10;;;10.30;99.90;;;;;;5074475;28;20028;-76
2022/12/24 07:20:38;;;;;;;12.63;5.43;;;10.30;99.90;;;;;;5091149;28;20032;-77
2022/12/24 07:23:04;;;;;;;16.83;9.00;;;10.30;99.90;;;;;;5070954;28;20485;-77
2022/12/24 07:25:29;;;;;;;21.70;7.38;;;10.20;99.90;;;;;;5102852;28;20054;-77
2022/12/24 07:27:55;;;;;;;19.58;6.20;;;10.20;99.90;;;;;;5070487;28;20032;-76
2022/12/24 07:30:21;;;;;;;26.95;5.55;;;10.10;99.90;;;;;;5087350;28;20025;-77
2022/12/24 07:32:47;;;;;;;26.98;7.13;;;10.10;99.90;;;;;;5098269;28;20036;-77
2022/12/24 07:35:13;;;;;;;20.23;5.75;;;10.10;99.90;;;;;;5073558;28;20047;-77
2022/12/24 07:37:39;;;;;;;24.48;9.00;;;10.10;99.90;;;;;;5053782;28;20028;-77
2022/12/24 07:40:08;;;;;;;17.60;7.75;;;10.10;99.90;;;;;;5078242;28;20045;-76
2022/12/24 07:42:34;;;;;;;23.00;7.55;;;10.20;99.90;;;;;;5076635;28;20028;-76
2022/12/24 07:45:00;;;;;;;29.23;8.27;;;10.20;99.90;;;;;;5053719;28;20025;-77
2022/12/24 07:47:27;;;;;;;27.13;7.13;;;10.20;99.90;;;;;;5076661;28;20054;-75
2022/12/24 07:49:53;;;;;;;26.98;7.80;;;10.10;99.90;;;;;;5071101;28;20119;-76
2022/12/24 07:52:19;;;;;;;18.13;7.70;;;10.00;99.90;;;;;;5070513;28;20382;-76
2022/12/24 07:54:45;;;;;;;16.95;8.30;;;10.00;99.90;;;;;;5070434;28;20092;-76
2022/12/24 07:57:11;;;;;;;21.13;7.75;;;10.00;99.90;;;;;;5087042;28;20024;-76
2022/12/24 07:59:38;;;;;;;22.27;8.48;;;10.00;99.90;;;;;;5054625;28;20110;-76
2022/12/24 08:02:04;;;;;;;19.27;6.78;;;10.00;99.90;;;;;;5070681;28;20088;-76
2022/12/24 08:04:35;;;;;;;27.35;7.03;;;10.00;99.90;;;;;;5110192;28;20030;-76
2022/12/24 08:07:05;;;;;;;15.25;5.30;;;10.10;99.90;;;;;;5088169;28;20032;-76
2022/12/24 08:09:35;;;;;;;15.63;5.93;;;10.10;99.90;;;;;;5093638;28;20036;-76
2022/12/24 08:12:02;;;;;;;23.13;6.90;;;10.10;99.90;;;;;;5080411;28;20039;-76
2022/12/24 08:14:29;;;;;;;23.00;10.00;;;10.10;99.90;;;;;;5087189;28;20043;-76
2022/12/24 08:16:55;;;;;;;19.38;5.15;;;10.20;99.90;;;;;;5069667;28;20032;-75
2022/12/24 08:19:22;;;;;;;16.27;7.22;;;10.20;99.90;;;;;;5069974;28;20052;-76
2022/12/24 08:21:47;;;;;;;27.73;9.23;;;10.20;99.90;;;;;;5069888;28;20038;-76
2022/12/24 08:24:13;;;;;;;14.25;7.72;;;10.20;99.90;;;;;;5069811;28;20080;-76
2022/12/24 08:26:40;;;;;;;18.15;5.18;;;10.20;99.90;;;;;;5091016;28;20036;-75
2022/12/24 08:29:05;;;;;;;8.75;5.30;;;10.20;99.90;;;;;;5079580;28;20030;-75
2022/12/24 08:31:35;;;;;;;21.50;6.38;;;10.30;99.90;;;;;;5075217;28;20102;-75
2022/12/24 08:34:06;;;;;;;22.80;7.93;;;10.30;99.90;;;;;;5096768;28;20110;-76
2022/12/24 08:36:33;;;;;;;29.52;4.57;;;10.40;99.90;;;;;;5090135;28;20031;-76
2022/12/24 08:39:02;;;;;;;26.73;7.22;;;10.40;99.90;;;;;;5108271;28;20409;-76
2022/12/24 08:41:29;;;;;;;34.05;7.75;;;10.40;99.90;;;;;;5108863;28;20048;-75
2022/12/24 08:43:55;;;;;;;23.77;7.10;;;10.40;99.90;;;;;;5074408;28;20024;-76
2022/12/24 08:46:21;;;;;;;25.38;8.60;;;10.40;99.90;;;;;;5108251;28;20050;-76
2022/12/24 08:48:47;;;;;;;11.23;4.95;;;10.50;99.90;;;;;;5108038;28;20032;-76
2022/12/24 08:51:13;;;;;;;22.20;6.20;;;10.50;99.90;;;;;;5107772;28;20047;-76
2022/12/24 08:53:39;;;;;;;20.45;7.50;;;10.50;99.90;;;;;;5108151;28;20073;-76
2022/12/24 08:56:08;;;;;;;37.20;7.10;;;10.50;99.90;;;;;;5107880;28;20034;-76
2022/12/24 08:58:34;;;;;;;22.67;7.55;;;10.50;99.90;;;;;;5108015;28;20030;-76
2022/12/24 09:01:00;;;;;;;14.52;7.53;;;10.60;99.90;;;;;;5074339;28;20548;-76
2022/12/24 09:03:26;;;;;;;33.72;10.80;;;10.60;99.90;;;;;;5107947;28;20111;-76
2022/12/24 09:05:52;;;;;;;22.05;5.45;;;10.50;99.90;;;;;;5105855;28;20028;-78
2022/12/24 09:08:19;;;;;;;19.35;8.20;;;10.60;99.90;;;;;;5128496;28;20024;-76
2022/12/24 09:10:45;;;;;;;14.73;5.80;;;10.50;99.90;;;;;;5096031;28;20031;-78
2022/12/24 09:13:11;;;;;;;16.20;6.90;;;10.50;99.90;;;;;;5129332;28;20042;-76
2022/12/24 09:15:37;;;;;;;18.33;6.55;;;10.60;99.90;;;;;;5112388;28;20036;-78
2022/12/24 09:18:03;;;;;;;28.38;7.03;;;10.60;99.90;;;;;;5130598;28;20024;-76
2022/12/24 09:20:29;;;;;;;20.63;8.73;;;10.60;99.90;;;;;;5095696;28;20042;-78
2022/12/24 09:22:55;;;;;;;15.38;6.72;;;10.60;99.90;;;;;;5097537;28;20020;-76
2022/12/24 09:25:21;;;;;;;18.02;6.00;;;10.60;99.90;;;;;;5092600;28;20040;-77
2022/12/24 09:27:46;;;;;;;16.70;5.88;;;10.60;99.90;;;;;;5107369;28;20036;-75
2022/12/24 09:30:13;;;;;;;22.48;5.35;;;10.60;99.90;;;;;;5072956;28;20024;-76
2022/12/24 09:32:39;;;;;;;24.58;6.50;;;10.60;99.90;;;;;;5108112;28;20038;-76
2022/12/24 09:35:05;;;;;;;21.77;5.68;;;10.60;99.90;;;;;;5107169;28;20464;-76
2022/12/24 09:37:31;;;;;;;14.23;9.15;;;10.60;99.90;;;;;;5099278;28;20028;-76
2022/12/24 09:39:57;;;;;;;16.33;7.45;;;10.70;99.90;;;;;;5123619;28;20052;-76
2022/12/24 09:42:48;;;;;;;25.60;8.02;;;10.70;99.90;;;;;;5089760;28;20103;-76
2022/12/24 09:45:51;;;;;;;17.40;7.75;;;10.80;99.90;;;;;;5106371;28;20035;-76
2022/12/24 09:48:23;;;;;;;13.07;4.78;;;10.80;99.90;;;;;;5081570;28;20043;-76
2022/12/24 09:51:17;;;;;;;21.05;8.63;;;10.90;99.90;;;;;;5104071;28;20034;-76
2022/12/24 09:54:16;;;;;;;20.70;7.97;;;11.10;99.90;;;;;;5069769;28;20063;-77
2022/12/24 09:56:47;;;;;;;27.00;9.13;;;11.10;99.90;;;;;;5106352;28;20032;-77
2022/12/24 09:59:28;;;;;;;17.80;7.32;;;11.10;99.90;;;;;;5088728;28;20024;-77
2022/12/24 10:01:54;;;;;;;29.58;10.98;;;11.20;99.90;;;;;;5088666;28;20083;-76
2022/12/24 10:04:25;;;;;;;17.10;6.70;;;11.20;99.90;;;;;;5067925;28;20036;-76
2022/12/24 10:07:25;;;;;;;18.20;6.45;;;11.10;99.90;;;;;;5069368;28;20117;-76
2022/12/24 10:09:54;;;;;;;31.05;7.00;;;11.10;99.90;;;;;;5086953;28;20032;-76
2022/12/24 10:12:35;;;;;;;20.73;6.25;;;11.10;99.90;;;;;;5067853;28;20032;-76
2022/12/24 10:15:39;;;;;;;20.73;7.65;;;11.10;99.90;;;;;;5089510;28;20113;-76
2022/12/24 10:18:23;;;;;;;15.60;6.53;;;11.10;99.90;;;;;;5106739;28;20028;-76
2022/12/24 10:21:11;;;;;;;12.88;6.97;;;11.10;99.90;;;;;;5088854;28;20020;-76
2022/12/24 10:23:56;;;;;;;18.33;6.97;;;11.30;99.90;;;;;;5104068;28;20024;-76
2022/12/24 10:26:39;;;;;;;16.73;7.00;;;11.60;99.90;;;;;;5106373;28;20111;-76
2022/12/24 10:29:13;;;;;;;19.02;7.10;;;11.70;99.90;;;;;;5090041;28;20031;-76
2022/12/24 10:32:07;;;;;;;22.92;6.70;;;11.60;99.90;;;;;;5106386;28;20058;-76
2022/12/24 10:34:40;;;;;;;17.95;5.65;;;11.60;99.90;;;;;;5083810;28;20040;-76
2022/12/24 10:37:09;;;;;;;14.52;5.43;;;11.40;99.90;;;;;;5087977;28;20056;-76
2022/12/24 10:39:35;;;;;;;23.38;7.28;;;11.30;99.90;;;;;;5103873;28;20032;-76
2022/12/24 10:42:01;;;;;;;18.80;5.45;;;11.40;99.90;;;;;;5105954;28;20507;-76
2022/12/24 10:44:30;;;;;;;19.58;5.97;;;11.50;99.90;;;;;;5113012;28;20053;-76
2022/12/24 10:46:56;;;;;;;21.30;8.60;;;11.60;99.90;;;;;;5073854;28;20028;-76
2022/12/24 10:49:34;;;;;;;35.47;8.98;;;11.70;99.90;;;;;;5106451;28;20028;-76
2022/12/24 10:52:10;;;;;;;23.73;7.88;;;11.80;99.90;;;;;;5108746;28;20027;-76
2022/12/24 10:54:38;;;;;;;13.77;5.03;;;11.90;99.90;;;;;;5105291;28;20039;-76
2022/12/24 10:57:21;;;;;;;30.15;6.53;;;11.90;99.90;;;;;;5105992;28;20032;-77
2022/12/24 10:59:55;;;;;;;22.02;7.85;;;11.80;99.90;;;;;;5108179;28;20050;-76
2022/12/24 11:02:35;;;;;;;53.28;25.20;;;11.90;99.90;;;;;;5126584;28;20030;-76
2022/12/24 11:05:04;;;;;;;22.08;12.07;;;12.00;99.90;;;;;;5097686;28;20477;-76
2022/12/24 11:07:31;;;;;;;22.15;7.28;;;12.00;99.90;;;;;;5105713;28;20028;-76
2022/12/24 11:10:02;;;;;;;14.98;5.57;;;12.60;99.90;;;;;;5095068;28;20027;-77
2022/12/24 11:12:45;;;;;;;19.55;6.45;;;13.30;99.90;;;;;;5127002;28;20049;-76
2022/12/24 11:15:30;;;;;;;16.52;8.48;;;13.40;99.90;;;;;;5108572;28;20111;-76
2022/12/24 11:18:03;;;;;;;17.67;6.30;;;13.80;99.90;;;;;;5092040;28;20039;-77
2022/12/24 11:20:33;;;;;;;17.08;7.32;;;14.20;99.90;;;;;;5126925;28;20023;-76
2022/12/24 11:23:01;;;;;;;28.92;5.63;;;14.70;99.90;;;;;;5101583;28;20087;-76
2022/12/24 11:25:31;;;;;;;12.77;5.50;;;14.70;99.90;;;;;;5107148;28;20481;-77
2022/12/24 11:28:20;;;;;;;21.27;7.88;;;14.40;99.90;;;;;;5071450;28;20028;-76
2022/12/24 11:31:18;;;;;;;15.90;5.68;;;14.30;99.90;;;;;;5106131;28;20114;-76
2022/12/24 11:33:47;;;;;;;23.77;6.85;;;14.30;99.90;;;;;;5087358;28;20362;-76
2022/12/24 11:36:15;;;;;;;22.45;8.98;;;14.30;99.90;;;;;;5108197;28;20080;-76
2022/12/24 11:38:41;;;;;;;24.42;5.85;;;14.50;99.90;;;;;;5110349;28;20063;-77
2022/12/24 11:41:10;;;;;;;7.13;4.38;;;14.70;99.90;;;;;;5110299;28;20032;-76
2022/12/24 11:43:44;;;;;;;15.45;6.95;;;14.80;99.90;;;;;;5107513;28;20023;-76
2022/12/24 11:46:17;;;;;;;13.38;5.03;;;14.90;99.90;;;;;;5113220;28;20027;-76
2022/12/24 11:48:43;;;;;;;14.85;6.10;;;14.80;99.90;;;;;;5109532;28;20032;-76
2022/12/24 11:51:25;;;;;;;15.85;5.60;;;15.00;99.90;;;;;;5093621;28;20016;-76
2022/12/24 11:54:16;;;;;;;20.13;6.20;;;15.00;99.90;;;;;;5109506;28;20024;-77
2022/12/24 11:56:46;;;;;;;9.05;4.80;;;15.40;99.90;;;;;;5107896;28;20032;-77
2022/12/24 11:59:35;;;;;;;10.70;5.63;;;15.40;99.90;;;;;;5091271;28;20046;-76
2022/12/24 12:02:30;;;;;;;16.25;6.25;;;15.10;99.90;;;;;;5077543;28;20033;-76
2022/12/24 12:05:01;;;;;;;17.88;5.43;;;14.90;99.90;;;;;;5090052;28;20035;-76
2022/12/24 12:07:34;;;;;;;11.63;4.05;;;14.90;99.90;;;;;;5109801;28;20520;-77
2022/12/24 12:10:27;;;;;;;18.40;4.90;;;14.90;99.90;;;;;;5090701;28;20043;-76
2022/12/24 12:13:04;;;;;;;9.38;3.58;;;14.70;99.90;;;;;;5109060;28;20028;-76
2022/12/24 12:16:01;;;;;;;18.30;5.07;;;14.60;99.90;;;;;;5109184;28;20073;-76
2022/12/24 12:18:38;;;;;;;20.35;5.30;;;14.60;99.90;;;;;;5044200;28;20038;-76
2022/12/24 12:21:25;;;;;;;9.48;4.85;;;14.40;99.90;;;;;;5091597;28;20069;-76
2022/12/24 12:23:59;;;;;;;8.40;3.72;;;14.20;99.90;;;;;;5113609;28;20028;-76
2022/12/24 12:26:27;;;;;;;24.77;5.97;;;14.20;99.90;;;;;;5129079;28;20044;-76
2022/12/24 12:29:24;;;;;;;9.05;5.13;;;14.10;99.90;;;;;;5128672;28;20020;-77
2022/12/24 12:31:57;;;;;;;20.85;4.45;;;13.80;99.90;;;;;;5110277;28;20039;-76
2022/12/24 12:34:38;;;;;;;9.70;4.00;;;13.70;99.90;;;;;;5110402;28;20537;-76
2022/12/24 12:37:42;;;;;;;22.67;6.05;;;13.80;99.90;;;;;;5110280;28;20039;-76
2022/12/24 12:40:17;;;;;;;18.90;7.82;;;13.50;99.90;;;;;;5009369;28;20076;-76
2022/12/24 12:43:11;;;;;;;15.05;5.82;;;13.30;99.90;;;;;;5081518;28;20039;-76
2022/12/24 12:45:56;;;;;;;21.42;5.68;;;13.10;99.90;;;;;;5127543;28;20044;-76
2022/12/24 12:48:40;;;;;;;14.93;6.05;;;13.30;99.90;;;;;;5111268;28;20027;-76
2022/12/24 12:51:20;;;;;;;11.38;5.25;;;13.80;99.90;;;;;;5110155;28;20495;-76
2022/12/24 12:54:14;;;;;;;10.27;5.47;;;14.00;99.90;;;;;;5110354;28;20039;-76
2022/12/24 12:56:45;;;;;;;8.07;5.07;;;14.20;99.90;;;;;;5110597;28;20032;-76
2022/12/24 12:59:34;;;;;;;15.68;5.20;;;14.30;99.90;;;;;;5128341;28;20020;-77
2022/12/24 13:02:17;;;;;;;9.75;5.07;;;14.00;99.90;;;;;;5110158;28;20023;-76
2022/12/24 13:05:14;;;;;;;11.73;3.47;;;14.10;99.90;;;;;;5093042;28;20099;-78
2022/12/24 13:08:08;;;;;;;17.98;4.88;;;14.10;99.90;;;;;;5128348;28;20055;-77